Manila Express — VRCX7 — position and weather

sailwx.info

Track history (hours):
 
Tides and Currents Weather Stations Pressure Air Temp Water Temp Dewpoint Dewpoint Depression Visibility Wind Speed Wind Dir Waves Ship Positions

Manila Express

Last reported at 2016-Dec-07 23:34 UTC. Time now 2016-Dec-08 11:53 UTC.
Position N 34°05' W 024°29'.

Length 260 m; draft 10.1 m.

Type: Ship (hazmat cat A). MMSI: 477830800.

Date/timePositionNaut miles runAvg speedWind from/ knotsBaromVisibWave heightAir tempDewpointWater temp
2016-Dec-07 23:34N 34°05' W 024°29'1717.2
2016-Dec-07 22:33N 34°02' W 024°50'2417.2
2016-Dec-07 21:10N 33°58' W 025°18'  
2016-Dec-01 04:33N 26°10' W 079°17'2121.1
2016-Dec-01 03:33N 25°49' W 079°24'2121.4
2016-Dec-01 02:33N 25°29' W 079°31'62112.4
2016-Nov-29 00:33N 29°55' W 090°04'3 0.1
2016-Nov-28 05:33N 29°55' W 090°07'4 4.0
2016-Nov-28 04:31N 29°57' W 090°03'9 8.1
2016-Nov-28 03:23N 29°53' W 089°54'  
Track history (hours):
 
Tides and Currents Weather Stations Pressure Air Temp Water Temp Dewpoint Dewpoint Depression Visibility Wind Speed Wind Dir Waves Ship Positions

Manila Express

Last reported at 2016-Dec-07 23:34 UTC. Time now 2016-Dec-08 11:53 UTC.
Position N 34°05' W 024°29'.

Length 260 m; draft 10.1 m.

Type: Ship (hazmat cat A). MMSI: 477830800.

Date/timePositionNaut miles runAvg speedWind from/ knotsBaromVisibWave heightAir tempDewpointWater temp
2016-Dec-07 23:34N 34°05' W 024°29'1717.2
2016-Dec-07 22:33N 34°02' W 024°50'2417.2
2016-Dec-07 21:10N 33°58' W 025°18'  
2016-Dec-01 04:33N 26°10' W 079°17'2121.1
2016-Dec-01 03:33N 25°49' W 079°24'2121.4
2016-Dec-01 02:33N 25°29' W 079°31'62112.4
2016-Nov-29 00:33N 29°55' W 090°04'3 0.1
2016-Nov-28 05:33N 29°55' W 090°07'4 4.0
2016-Nov-28 04:31N 29°57' W 090°03'9 8.1
2016-Nov-28 03:23N 29°53' W 089°54'  

Dump ship's entire track history